createdAt,value
2023-04-19T00:00:59.486Z,8.60
2023-04-19T00:01:59.530Z,8.61
2023-04-19T00:02:59.591Z,8.56
2023-04-19T00:04:05.819Z,8.56
2023-04-19T00:04:59.495Z,8.60
2023-04-19T00:05:59.446Z,8.63
2023-04-19T00:06:59.402Z,8.58
2023-04-19T00:07:59.525Z,8.60
2023-04-19T00:08:59.355Z,8.61
2023-04-19T00:10:05.605Z,8.61
2023-04-19T00:10:59.348Z,8.63
2023-04-19T00:11:59.327Z,8.63
2023-04-19T00:12:59.307Z,8.66
2023-04-19T00:13:59.315Z,8.64
2023-04-19T00:14:59.337Z,8.69
2023-04-19T00:16:05.532Z,8.70
2023-04-19T00:16:59.315Z,8.70
2023-04-19T00:17:59.374Z,8.71
2023-04-19T00:18:59.264Z,8.70
2023-04-19T00:19:59.215Z,8.71
2023-04-19T00:21:05.460Z,8.73
2023-04-19T00:21:59.213Z,8.73
2023-04-19T00:22:59.212Z,8.74
2023-04-19T00:23:59.198Z,8.73
2023-04-19T00:24:59.161Z,8.73
2023-04-19T00:25:59.149Z,8.73
2023-04-19T00:27:05.410Z,8.73
2023-04-19T00:27:59.112Z,8.73
2023-04-19T00:28:59.125Z,8.76
2023-04-19T00:29:59.085Z,8.78
2023-04-19T00:30:59.073Z,8.74
2023-04-19T00:32:05.343Z,8.76
2023-04-19T00:32:59.133Z,8.76
2023-04-19T00:33:59.051Z,8.76
2023-04-19T00:34:59.036Z,8.76
2023-04-19T00:35:59.006Z,8.74
2023-04-19T00:36:59.031Z,8.73
2023-04-19T00:38:05.245Z,8.70
2023-04-19T00:38:58.970Z,8.67
2023-04-19T00:39:58.984Z,8.66
2023-04-19T00:40:58.980Z,8.66
2023-04-19T00:41:58.956Z,8.66
2023-04-19T00:43:05.170Z,8.66
2023-04-19T00:43:58.922Z,8.67
2023-04-19T00:44:58.926Z,8.66
2023-04-19T00:45:58.967Z,8.67
2023-04-19T00:46:58.916Z,8.66
2023-04-19T00:47:58.954Z,8.60
2023-04-19T00:49:05.108Z,8.61
2023-04-19T00:49:58.857Z,8.60
2023-04-19T00:50:58.839Z,8.56
2023-04-19T00:51:58.820Z,8.56
2023-04-19T00:52:58.792Z,8.58
2023-04-19T00:54:05.067Z,8.56
2023-04-19T00:54:58.785Z,8.56
2023-04-19T00:55:58.762Z,8.56
2023-04-19T00:56:58.737Z,8.56
2023-04-19T00:57:58.737Z,8.58
2023-04-19T00:58:58.726Z,8.56
2023-04-19T01:00:04.950Z,8.61
2023-04-19T01:00:58.701Z,8.61
2023-04-19T01:01:58.824Z,8.60
2023-04-19T01:02:58.718Z,8.55
2023-04-19T01:03:58.742Z,8.51
2023-04-19T01:04:58.632Z,8.48
2023-04-19T01:06:04.861Z,8.45
2023-04-19T01:06:58.649Z,8.46
2023-04-19T01:07:58.606Z,8.46
2023-04-19T01:08:58.597Z,8.45
2023-04-19T01:09:59.530Z,8.44
2023-04-19T01:11:04.808Z,8.42
2023-04-19T01:11:58.560Z,8.36
2023-04-19T01:12:58.546Z,8.33
2023-04-19T01:13:58.510Z,8.36
2023-04-19T01:14:58.547Z,8.33
2023-04-19T01:15:58.547Z,8.28
2023-04-19T01:17:04.766Z,8.28
2023-04-19T01:17:58.536Z,8.28
2023-04-19T01:18:58.449Z,8.23
2023-04-19T01:19:58.455Z,8.20
2023-04-19T01:20:58.455Z,8.19
2023-04-19T01:22:04.705Z,8.19
2023-04-19T01:22:58.395Z,8.23
2023-04-19T01:23:58.383Z,8.20
2023-04-19T01:24:58.380Z,8.24
2023-04-19T01:25:58.396Z,8.24
2023-04-19T01:27:04.594Z,8.23
2023-04-19T01:27:58.365Z,8.24
2023-04-19T01:28:58.354Z,8.24
2023-04-19T01:29:58.318Z,8.23
2023-04-19T01:30:59.173Z,8.18
2023-04-19T01:32:04.570Z,8.15
2023-04-19T01:32:58.454Z,8.12
2023-04-19T01:33:58.261Z,8.15
2023-04-19T01:34:58.251Z,8.13
2023-04-19T01:35:58.241Z,8.13
2023-04-19T01:37:04.489Z,8.13
2023-04-19T01:37:58.281Z,8.12
2023-04-19T01:38:58.239Z,8.09
2023-04-19T01:39:58.203Z,8.03
2023-04-19T01:40:58.188Z,7.98
2023-04-19T01:41:58.168Z,7.95
2023-04-19T01:43:04.369Z,7.94
2023-04-19T01:43:58.119Z,7.93
2023-04-19T01:44:58.146Z,7.94
2023-04-19T01:45:58.104Z,7.91
2023-04-19T01:46:58.138Z,7.95
2023-04-19T01:48:04.352Z,7.98
2023-04-19T01:48:58.116Z,7.94
2023-04-19T01:49:58.072Z,7.88
2023-04-19T01:50:58.039Z,7.87
2023-04-19T01:51:58.041Z,7.87
2023-04-19T01:53:04.275Z,7.83
2023-04-19T01:53:58.025Z,7.83
2023-04-19T01:54:58.012Z,7.80
2023-04-19T01:55:57.965Z,7.79
2023-04-19T01:56:57.995Z,7.76
2023-04-19T01:57:57.966Z,7.80
2023-04-19T01:59:04.206Z,7.80
2023-04-19T01:59:57.950Z,7.80
2023-04-19T02:00:57.945Z,7.83
2023-04-19T02:01:58.004Z,7.80
2023-04-19T02:02:58.028Z,7.80
2023-04-19T02:04:04.254Z,7.82
2023-04-19T02:04:57.855Z,7.83
2023-04-19T02:05:57.865Z,7.80
2023-04-19T02:06:57.856Z,7.80
2023-04-19T02:07:57.848Z,7.82
2023-04-19T02:09:04.110Z,7.80
2023-04-19T02:09:57.848Z,7.82
2023-04-19T02:10:57.783Z,7.85
2023-04-19T02:11:57.782Z,7.83
2023-04-19T02:12:58.011Z,7.82
2023-04-19T02:14:04.071Z,7.77
2023-04-19T02:14:57.749Z,7.76
2023-04-19T02:15:57.758Z,7.76
2023-04-19T02:16:57.923Z,7.76
2023-04-19T02:17:57.753Z,7.76
2023-04-19T02:18:57.689Z,7.76
2023-04-19T02:20:03.938Z,7.76
2023-04-19T02:20:57.670Z,7.73
2023-04-19T02:21:57.716Z,7.67
2023-04-19T02:22:57.660Z,7.67
2023-04-19T02:23:57.625Z,7.66
2023-04-19T02:25:03.829Z,7.63
2023-04-19T02:25:57.597Z,7.63
2023-04-19T02:26:57.610Z,7.63
2023-04-19T02:27:57.560Z,7.63
2023-04-19T02:28:57.577Z,7.58
2023-04-19T02:30:03.791Z,7.54
2023-04-19T02:30:57.516Z,7.54
2023-04-19T02:31:57.559Z,7.53
2023-04-19T02:32:57.548Z,7.48
2023-04-19T02:33:57.484Z,7.43
2023-04-19T02:35:03.715Z,7.45
2023-04-19T02:35:57.474Z,7.48
2023-04-19T02:36:57.499Z,7.51
2023-04-19T02:37:57.471Z,7.51
2023-04-19T02:38:57.425Z,7.50
2023-04-19T02:39:57.407Z,7.47
2023-04-19T02:41:03.653Z,7.40
2023-04-19T02:41:57.404Z,7.38
2023-04-19T02:42:57.402Z,7.39
2023-04-19T02:43:57.369Z,7.35
2023-04-19T02:44:57.351Z,7.32
2023-04-19T02:45:57.436Z,7.35
2023-04-19T02:47:03.638Z,7.35
2023-04-19T02:47:57.467Z,7.32
2023-04-19T02:48:57.321Z,7.33
2023-04-19T02:49:57.279Z,7.32
2023-04-19T02:50:57.295Z,7.31
2023-04-19T02:52:03.540Z,7.33
2023-04-19T02:52:57.255Z,7.35
2023-04-19T02:53:57.221Z,7.33
2023-04-19T02:54:57.225Z,7.35
2023-04-19T02:55:57.215Z,7.35
2023-04-19T02:56:57.409Z,7.33
2023-04-19T02:58:03.453Z,7.33
2023-04-19T02:58:57.186Z,7.35
2023-04-19T02:59:57.143Z,7.35
2023-04-19T03:00:57.189Z,7.29
2023-04-19T03:01:57.856Z,7.25
2023-04-19T03:03:03.561Z,7.28
2023-04-19T03:03:57.302Z,7.28
2023-04-19T03:04:57.088Z,7.23
2023-04-19T03:05:57.161Z,7.20
2023-04-19T03:06:57.096Z,7.17
2023-04-19T03:08:03.331Z,7.14
2023-04-19T03:08:57.045Z,7.11
2023-04-19T03:09:57.040Z,7.14
2023-04-19T03:10:57.016Z,7.14
2023-04-19T03:11:57.035Z,7.14
2023-04-19T03:12:57.006Z,7.17
2023-04-19T03:14:03.246Z,7.17
2023-04-19T03:14:56.973Z,7.15
2023-04-19T03:15:56.971Z,7.14
2023-04-19T03:16:56.979Z,7.14
2023-04-19T03:17:56.970Z,7.13
2023-04-19T03:18:56.939Z,7.10
2023-04-19T03:20:03.125Z,7.07
2023-04-19T03:20:56.896Z,7.06
2023-04-19T03:21:56.880Z,7.05
2023-04-19T03:22:56.870Z,7.00
2023-04-19T03:23:56.844Z,7.00
2023-04-19T03:25:03.110Z,6.99
2023-04-19T03:25:56.876Z,6.97
2023-04-19T03:26:56.785Z,6.93
2023-04-19T03:27:56.796Z,6.88
2023-04-19T03:28:56.763Z,6.89
2023-04-19T03:29:56.778Z,6.88
2023-04-19T03:31:03.024Z,6.82
2023-04-19T03:31:56.755Z,6.84
2023-04-19T03:32:56.742Z,6.82
2023-04-19T03:33:56.831Z,6.78
2023-04-19T03:34:56.700Z,6.81
2023-04-19T03:35:56.696Z,6.85
2023-04-19T03:37:02.904Z,6.89
2023-04-19T03:37:56.693Z,6.92
2023-04-19T03:38:56.629Z,6.88
2023-04-19T03:39:56.650Z,6.85
2023-04-19T03:40:56.671Z,6.85
2023-04-19T03:41:56.612Z,6.84
2023-04-19T03:43:02.864Z,6.87
2023-04-19T03:43:56.565Z,6.87
2023-04-19T03:44:56.585Z,6.87
2023-04-19T03:45:56.558Z,6.87
2023-04-19T03:46:56.542Z,6.84
2023-04-19T03:47:56.616Z,6.78
2023-04-19T03:49:02.785Z,6.72
2023-04-19T03:49:56.517Z,6.72
2023-04-19T03:50:56.577Z,6.67
2023-04-19T03:51:56.496Z,6.64
2023-04-19T03:52:56.535Z,6.59
2023-04-19T03:54:02.743Z,6.60
2023-04-19T03:54:56.439Z,6.62
2023-04-19T03:55:56.463Z,6.59
2023-04-19T03:56:56.425Z,6.57
2023-04-19T03:57:56.408Z,6.60
2023-04-19T03:59:02.759Z,6.59
2023-04-19T03:59:56.371Z,6.62
2023-04-19T04:00:56.353Z,6.59
2023-04-19T04:01:56.402Z,6.52
2023-04-19T04:02:56.600Z,6.46
2023-04-19T04:04:04.785Z,6.44
2023-04-19T04:04:56.473Z,6.45
2023-04-19T04:05:56.332Z,6.46
2023-04-19T04:06:56.291Z,6.48
2023-04-19T04:07:56.300Z,6.49
2023-04-19T04:09:02.560Z,6.49
2023-04-19T04:09:56.268Z,6.48
2023-04-19T04:10:56.239Z,6.51
2023-04-19T04:11:56.214Z,6.46
2023-04-19T04:12:56.221Z,6.48
2023-04-19T04:13:56.222Z,6.46
2023-04-19T04:15:02.434Z,6.48
2023-04-19T04:15:56.261Z,6.39
2023-04-19T04:16:56.188Z,6.35
2023-04-19T04:17:56.225Z,6.35
2023-04-19T04:18:56.140Z,6.36
2023-04-19T04:20:02.396Z,6.36
2023-04-19T04:20:56.152Z,6.33
2023-04-19T04:21:56.088Z,6.31
2023-04-19T04:22:56.098Z,6.35
2023-04-19T04:23:56.102Z,6.36
2023-04-19T04:24:56.039Z,6.38
2023-04-19T04:26:02.309Z,6.36
2023-04-19T04:26:56.044Z,6.31
2023-04-19T04:27:56.002Z,6.33
2023-04-19T04:28:56.064Z,6.31
2023-04-19T04:29:56.024Z,6.33
2023-04-19T04:31:02.225Z,6.35
2023-04-19T04:31:55.977Z,6.35
2023-04-19T04:32:56.027Z,6.38
2023-04-19T04:33:55.950Z,6.33
2023-04-19T04:34:55.996Z,6.35
2023-04-19T04:35:55.913Z,6.30
2023-04-19T04:37:02.190Z,6.35
2023-04-19T04:37:55.898Z,6.38
2023-04-19T04:38:55.865Z,6.42
2023-04-19T04:39:55.878Z,6.44
2023-04-19T04:40:55.868Z,6.45
2023-04-19T04:41:55.854Z,6.48
2023-04-19T04:43:02.141Z,6.52
2023-04-19T04:44:10.757Z,6.49
2023-04-19T04:44:57.338Z,6.49
2023-04-19T04:45:55.927Z,6.48
2023-04-19T04:46:55.820Z,6.48
2023-04-19T04:48:02.064Z,6.48
2023-04-19T04:48:55.756Z,6.46
2023-04-19T04:49:55.753Z,6.44
2023-04-19T04:50:55.746Z,6.45
2023-04-19T04:51:55.727Z,6.45
2023-04-19T04:52:55.718Z,6.45
2023-04-19T04:54:01.940Z,6.46
2023-04-19T04:54:55.702Z,6.48
2023-04-19T04:55:55.736Z,6.49
2023-04-19T04:56:55.754Z,6.48
2023-04-19T04:57:55.657Z,6.45
2023-04-19T04:58:55.655Z,6.49
2023-04-19T05:00:01.894Z,6.49
2023-04-19T05:00:55.747Z,6.49
2023-04-19T05:01:55.661Z,6.49
2023-04-19T05:02:55.689Z,6.46
2023-04-19T05:03:55.625Z,6.51
2023-04-19T05:04:55.609Z,6.48
2023-04-19T05:06:01.789Z,6.45
2023-04-19T05:06:55.562Z,6.42
2023-04-19T05:07:55.522Z,6.45
2023-04-19T05:08:55.515Z,6.48
2023-04-19T05:09:55.501Z,6.49
2023-04-19T05:11:01.710Z,6.51
2023-04-19T05:11:55.484Z,6.54
2023-04-19T05:12:55.522Z,6.51
2023-04-19T05:13:55.427Z,6.51
2023-04-19T05:14:55.445Z,6.48
2023-04-19T05:15:55.474Z,6.44
2023-04-19T05:17:01.643Z,6.48
2023-04-19T05:17:55.439Z,6.52
2023-04-19T05:18:55.385Z,6.51
2023-04-19T05:19:55.366Z,6.51
2023-04-19T05:20:55.422Z,6.52
2023-04-19T05:22:01.676Z,6.52
2023-04-19T05:22:55.326Z,6.46
2023-04-19T05:23:55.310Z,6.49
2023-04-19T05:24:55.310Z,6.51
2023-04-19T05:25:55.314Z,6.46
2023-04-19T05:26:55.312Z,6.51
2023-04-19T05:28:01.604Z,6.52
2023-04-19T05:28:55.264Z,6.52
2023-04-19T05:29:55.282Z,6.54
2023-04-19T05:30:55.317Z,6.56
2023-04-19T05:31:55.244Z,6.59
2023-04-19T05:32:55.300Z,6.62
2023-04-19T05:34:01.510Z,6.67
2023-04-19T05:34:55.194Z,6.70
2023-04-19T05:35:55.143Z,6.74
2023-04-19T05:36:55.168Z,6.78
2023-04-19T05:37:55.129Z,6.79
2023-04-19T05:38:55.119Z,6.79
2023-04-19T05:40:01.412Z,6.82
2023-04-19T05:40:55.104Z,6.84
2023-04-19T05:41:55.096Z,6.77
2023-04-19T05:42:55.141Z,6.75
2023-04-19T05:43:55.066Z,6.69
2023-04-19T05:45:02.476Z,6.70
2023-04-19T05:45:55.078Z,6.75
2023-04-19T05:46:55.025Z,6.75
2023-04-19T05:47:55.111Z,6.78
2023-04-19T05:48:55.007Z,6.81
2023-04-19T05:50:01.280Z,6.82
2023-04-19T05:50:54.987Z,6.82
2023-04-19T05:51:54.961Z,6.82
2023-04-19T05:52:55.004Z,6.84
2023-04-19T05:53:57.172Z,6.88
2023-04-19T05:55:01.143Z,6.87
2023-04-19T05:55:54.986Z,6.85
2023-04-19T05:56:54.890Z,6.87
2023-04-19T05:57:54.977Z,6.82
2023-04-19T05:58:54.915Z,6.79
2023-04-19T06:00:01.181Z,6.79
2023-04-19T06:00:54.870Z,6.82
2023-04-19T06:01:54.901Z,6.85
2023-04-19T06:02:54.915Z,6.84
2023-04-19T06:03:54.993Z,6.84
2023-04-19T06:05:04.948Z,6.85
2023-04-19T06:05:56.326Z,6.85
2023-04-19T06:06:54.816Z,6.85
2023-04-19T06:08:01.630Z,6.88
2023-04-19T06:08:56.273Z,6.92
2023-04-19T06:10:01.021Z,6.96
2023-04-19T06:10:58.454Z,7.02
2023-04-19T06:11:56.231Z,7.05
2023-04-19T06:12:54.722Z,7.06
2023-04-19T06:13:54.672Z,7.10
2023-04-19T06:15:00.993Z,7.11
2023-04-19T06:15:54.667Z,7.10
2023-04-19T06:16:54.640Z,7.14
2023-04-19T06:17:54.756Z,7.17
2023-04-19T06:18:54.608Z,7.21
2023-04-19T06:19:54.594Z,7.23
2023-04-19T06:21:00.893Z,7.25
2023-04-19T06:21:54.573Z,7.31
2023-04-19T06:22:54.579Z,7.32
2023-04-19T06:23:54.611Z,7.36
2023-04-19T06:24:54.594Z,7.39
2023-04-19T06:26:00.755Z,7.42
2023-04-19T06:26:54.608Z,7.45
2023-04-19T06:27:54.486Z,7.51
2023-04-19T06:28:54.517Z,7.53
2023-04-19T06:29:54.454Z,7.54
2023-04-19T06:31:00.794Z,7.57
2023-04-19T06:31:54.546Z,7.58
2023-04-19T06:32:54.641Z,7.66
2023-04-19T06:33:54.427Z,7.70
2023-04-19T06:34:54.420Z,7.73
2023-04-19T06:35:54.433Z,7.79
2023-04-19T06:37:00.629Z,7.76
2023-04-19T06:37:54.387Z,7.79
2023-04-19T06:38:54.344Z,7.80
2023-04-19T06:39:54.353Z,7.83
2023-04-19T06:40:54.322Z,7.91
2023-04-19T06:41:54.316Z,7.94
2023-04-19T06:43:00.550Z,8.01
2023-04-19T06:43:54.288Z,8.05
2023-04-19T06:44:54.290Z,8.09
2023-04-19T06:45:54.305Z,8.15
2023-04-19T06:46:54.255Z,8.20
2023-04-19T06:48:00.533Z,8.24
2023-04-19T06:48:54.221Z,8.30
2023-04-19T06:49:54.223Z,8.30
2023-04-19T06:50:54.188Z,8.33
2023-04-19T06:51:54.177Z,8.34
2023-04-19T06:52:54.179Z,8.38
2023-04-19T06:54:00.409Z,8.44
2023-04-19T06:54:54.150Z,8.45
2023-04-19T06:55:54.165Z,8.51
2023-04-19T06:56:54.149Z,8.58
2023-04-19T06:57:54.119Z,8.64
2023-04-19T06:59:00.346Z,8.67
2023-04-19T06:59:54.094Z,8.71
2023-04-19T07:00:54.064Z,8.74
2023-04-19T07:01:54.313Z,8.76
2023-04-19T07:02:54.380Z,8.81
2023-04-19T07:04:00.391Z,8.88
2023-04-19T07:04:54.015Z,8.94
2023-04-19T07:05:54.002Z,8.97
2023-04-19T07:06:53.968Z,9.02
2023-04-19T07:07:53.988Z,9.06
2023-04-19T07:09:00.406Z,9.11
2023-04-19T07:09:54.147Z,9.14
2023-04-19T07:10:53.941Z,9.21
2023-04-19T07:11:53.918Z,9.26
2023-04-19T07:12:53.902Z,9.29
2023-04-19T07:13:53.896Z,9.32
2023-04-19T07:15:00.181Z,9.36
2023-04-19T07:15:53.884Z,9.39
2023-04-19T07:16:53.889Z,9.44
2023-04-19T07:17:53.853Z,9.47
2023-04-19T07:18:53.821Z,9.54
2023-04-19T07:19:53.835Z,9.56
2023-04-19T07:21:00.045Z,9.61
2023-04-19T07:21:53.775Z,9.66
2023-04-19T07:22:53.823Z,9.69
2023-04-19T07:23:53.763Z,9.76
2023-04-19T07:24:53.745Z,9.77
2023-04-19T07:26:00.022Z,9.79
2023-04-19T07:26:53.733Z,9.83
2023-04-19T07:27:53.762Z,9.89
2023-04-19T07:28:53.695Z,9.92
2023-04-19T07:29:53.718Z,9.97
2023-04-19T07:30:53.699Z,9.97
2023-04-19T07:32:00.011Z,10.01
2023-04-19T07:32:53.707Z,10.04
2023-04-19T07:33:53.659Z,10.07
2023-04-19T07:34:53.620Z,10.12
2023-04-19T07:35:53.621Z,10.16
2023-04-19T07:36:53.629Z,10.22
2023-04-19T07:37:59.824Z,10.30
2023-04-19T07:38:53.663Z,10.34
2023-04-19T07:39:53.557Z,10.38
2023-04-19T07:40:53.537Z,10.42
2023-04-19T07:41:53.535Z,10.51
2023-04-19T07:42:59.788Z,10.56
2023-04-19T07:43:53.504Z,10.61
2023-04-19T07:44:53.485Z,10.67
2023-04-19T07:45:53.468Z,10.72
2023-04-19T07:46:53.598Z,10.76
2023-04-19T07:47:53.521Z,10.82
2023-04-19T07:48:59.683Z,10.87
2023-04-19T07:49:53.466Z,10.94
2023-04-19T07:50:53.411Z,10.96
2023-04-19T07:51:53.398Z,10.99
2023-04-19T07:52:53.409Z,11.04
2023-04-19T07:53:53.416Z,11.08
2023-04-19T07:54:59.637Z,11.14
2023-04-19T07:55:53.346Z,11.17
2023-04-19T07:56:53.371Z,11.25
2023-04-19T07:57:53.325Z,11.26
2023-04-19T07:59:04.478Z,11.33
2023-04-19T07:59:54.791Z,11.43
2023-04-19T08:00:59.563Z,11.47
2023-04-19T08:01:53.351Z,11.50
2023-04-19T08:02:53.374Z,11.52
2023-04-19T08:03:53.549Z,11.57
2023-04-19T08:04:53.459Z,11.59
2023-04-19T08:05:53.230Z,11.63
2023-04-19T08:06:59.438Z,11.66
2023-04-19T08:07:53.201Z,11.70
2023-04-19T08:08:53.205Z,11.75
2023-04-19T08:09:53.206Z,11.78
2023-04-19T08:10:53.157Z,11.81
2023-04-19T08:11:53.142Z,11.87
2023-04-19T08:13:05.883Z,11.90
2023-04-19T08:14:26.827Z,11.95
2023-04-19T08:15:04.808Z,11.99
2023-04-19T08:17:53.089Z,12.12
2023-04-19T08:18:59.293Z,12.18
2023-04-19T08:19:53.043Z,12.24
2023-04-19T08:20:53.058Z,12.25
2023-04-19T08:21:53.031Z,12.31
2023-04-19T08:22:53.010Z,12.37
2023-04-19T08:23:59.261Z,12.42
2023-04-19T08:24:52.979Z,12.46
2023-04-19T08:25:52.969Z,12.50
2023-04-19T08:26:52.931Z,12.60
2023-04-19T08:27:52.955Z,12.70
2023-04-19T08:28:52.920Z,12.78
2023-04-19T08:29:59.221Z,12.85
2023-04-19T08:30:52.885Z,12.94
2023-04-19T08:31:52.898Z,13.03
2023-04-19T08:32:55.440Z,13.09
2023-04-19T08:33:52.892Z,13.15
2023-04-19T08:34:52.875Z,13.22
2023-04-19T08:35:59.094Z,13.28
2023-04-19T08:37:03.587Z,13.23
2023-04-19T08:37:54.313Z,13.15
2023-04-19T08:39:04.216Z,13.28
2023-04-19T08:39:54.326Z,13.42
2023-04-19T08:40:59.013Z,13.54
2023-04-19T08:42:02.961Z,13.63
2023-04-19T08:42:54.257Z,13.72
2023-04-19T08:43:52.736Z,13.77
2023-04-19T08:45:13.621Z,13.87
2023-04-19T08:45:59.956Z,13.90
2023-04-19T08:46:52.671Z,13.72
2023-04-19T08:48:00.850Z,13.56
2023-04-19T08:48:54.290Z,13.42
2023-04-19T08:50:06.801Z,13.28
2023-04-19T08:51:05.632Z,13.25
2023-04-19T08:51:54.119Z,13.30
2023-04-19T08:52:58.818Z,13.46
2023-04-19T08:53:54.102Z,13.44
2023-04-19T08:54:52.586Z,13.35
2023-04-19T08:56:52.561Z,13.38
2023-04-19T08:57:52.541Z,13.30
2023-04-19T08:59:07.328Z,13.28
2023-04-19T08:59:54.041Z,13.28
2023-04-19T09:00:52.481Z,13.28
2023-04-19T09:01:58.816Z,13.28
2023-04-19T09:02:52.640Z,13.31
2023-04-19T09:04:02.379Z,13.42
2023-04-19T09:04:54.180Z,13.59
2023-04-19T09:05:52.603Z,13.65
2023-04-19T09:06:52.452Z,13.74
2023-04-19T09:07:58.645Z,13.79
2023-04-19T09:08:52.403Z,13.85
2023-04-19T09:10:02.417Z,13.85
2023-04-19T09:10:53.912Z,13.81
2023-04-19T09:11:52.366Z,13.79
2023-04-19T09:12:58.615Z,13.77
2023-04-19T09:13:52.975Z,13.77
2023-04-19T09:15:52.353Z,13.72
2023-04-19T09:16:52.384Z,13.71
2023-04-19T09:17:58.693Z,13.78
2023-04-19T09:18:59.754Z,13.89
2023-04-19T09:19:53.765Z,14.25
2023-04-19T09:20:52.248Z,14.51
2023-04-19T09:21:52.247Z,14.69
2023-04-19T09:22:52.211Z,14.89
2023-04-19T09:23:58.446Z,15.00
2023-04-19T09:26:15.111Z,15.17
2023-04-19T09:26:53.201Z,15.21
2023-04-19T09:27:52.143Z,15.24
2023-04-19T09:28:52.137Z,15.29
2023-04-19T09:29:58.413Z,15.35
2023-04-19T09:31:02.347Z,15.39
2023-04-19T09:31:53.745Z,15.39
2023-04-19T09:32:52.181Z,15.43
2023-04-19T09:33:55.973Z,15.44
2023-04-19T09:34:58.367Z,15.36
2023-04-19T09:35:52.034Z,15.21
2023-04-19T09:37:00.588Z,15.00
2023-04-19T09:38:04.710Z,14.89
2023-04-19T09:38:53.511Z,14.69
2023-04-19T09:39:58.253Z,14.58
2023-04-19T09:40:51.972Z,14.47
2023-04-19T09:41:51.981Z,14.53
2023-04-19T09:44:03.189Z,14.73
2023-04-19T09:45:59.663Z,14.84
2023-04-19T09:46:53.508Z,15.15
2023-04-19T09:47:51.971Z,15.40
2023-04-19T09:48:51.870Z,15.62
2023-04-19T09:49:52.057Z,15.79
2023-04-19T09:50:57.486Z,15.88
2023-04-19T09:51:59.598Z,16.02
2023-04-19T09:52:51.878Z,16.23
2023-04-19T09:53:51.799Z,16.28
2023-04-19T09:54:51.812Z,16.43
2023-04-19T09:56:01.182Z,16.61
2023-04-19T09:56:54.792Z,16.68
2023-04-19T09:57:58.014Z,16.61
2023-04-19T09:58:58.637Z,16.56
2023-04-19T09:59:53.240Z,16.66
2023-04-19T10:00:57.269Z,16.57
2023-04-19T10:01:53.291Z,16.13
2023-04-19T10:02:58.775Z,15.88
2023-04-19T10:03:52.768Z,15.92
2023-04-19T10:05:53.193Z,15.98
2023-04-19T10:07:13.871Z,16.13
2023-04-19T10:08:00.058Z,16.24
2023-04-19T10:08:51.726Z,16.31
2023-04-19T10:09:53.573Z,16.36
2023-04-19T10:10:51.620Z,16.10
2023-04-19T10:11:54.481Z,16.08
2023-04-19T10:13:16.153Z,16.28
2023-04-19T10:13:53.131Z,16.41
2023-04-19T10:14:51.547Z,16.60
2023-04-19T10:15:57.051Z,16.78
2023-04-19T10:16:53.159Z,16.90
2023-04-19T10:17:51.556Z,16.91
2023-04-19T10:18:57.749Z,16.72
2023-04-19T10:19:51.471Z,16.81
2023-04-19T10:20:51.491Z,16.79
2023-04-19T10:21:51.473Z,17.04
2023-04-19T10:22:51.449Z,17.29
2023-04-19T10:23:51.430Z,17.51
2023-04-19T10:24:57.678Z,17.70
2023-04-19T10:25:51.415Z,17.87
2023-04-19T10:26:51.424Z,18.00
2023-04-19T10:27:51.394Z,17.97
2023-04-19T10:28:51.358Z,18.01
2023-04-19T10:29:57.653Z,18.19
2023-04-19T10:30:51.350Z,18.08
2023-04-19T10:31:51.409Z,18.01
2023-04-19T10:32:51.375Z,17.70
2023-04-19T10:33:51.317Z,17.97
2023-04-19T10:34:57.590Z,18.15
2023-04-19T10:35:51.280Z,18.28
2023-04-19T10:36:51.266Z,18.35
2023-04-19T10:37:51.269Z,18.37
2023-04-19T10:38:51.258Z,18.40
2023-04-19T10:39:57.469Z,18.53
2023-04-19T10:40:51.224Z,18.73
2023-04-19T10:41:51.186Z,18.88
2023-04-19T10:42:51.210Z,18.95
2023-04-19T10:43:51.183Z,18.89
2023-04-19T10:44:57.453Z,18.80
2023-04-19T10:45:51.195Z,18.38
2023-04-19T10:46:51.168Z,17.98
2023-04-19T10:47:51.138Z,17.87
2023-04-19T10:48:51.111Z,18.01
2023-04-19T10:49:57.371Z,18.11
2023-04-19T10:50:51.069Z,18.29
2023-04-19T10:51:51.075Z,18.34
2023-04-19T10:52:51.307Z,18.23
2023-04-19T10:53:51.037Z,17.94
2023-04-19T10:54:57.289Z,17.64
2023-04-19T10:55:51.022Z,17.80
2023-04-19T10:56:51.009Z,17.89
2023-04-19T10:57:50.991Z,17.56
2023-04-19T10:58:51.005Z,17.51
2023-04-19T10:59:57.211Z,17.79
2023-04-19T11:00:50.950Z,17.80
2023-04-19T11:01:51.078Z,17.98
2023-04-19T11:02:51.081Z,18.16
2023-04-19T11:03:51.105Z,18.20
2023-04-19T11:04:57.185Z,18.34
2023-04-19T11:05:50.889Z,18.37
2023-04-19T11:06:50.911Z,18.50
2023-04-19T11:07:50.872Z,18.37
2023-04-19T11:08:50.830Z,18.34
2023-04-19T11:09:57.111Z,18.34
2023-04-19T11:10:52.220Z,18.59
2023-04-19T11:11:50.818Z,18.80
2023-04-19T11:12:50.795Z,19.11
2023-04-19T11:13:50.784Z,19.27
2023-04-19T11:14:57.024Z,18.86
2023-04-19T11:15:50.793Z,18.59
2023-04-19T11:16:50.786Z,18.37
2023-04-19T11:18:00.724Z,18.43
2023-04-19T11:18:52.274Z,18.53
2023-04-19T11:19:50.728Z,18.66
2023-04-19T11:20:56.953Z,18.68
2023-04-19T11:21:50.698Z,18.58
2023-04-19T11:22:50.675Z,19.21
2023-04-19T11:23:50.676Z,19.41
2023-04-19T11:24:50.656Z,19.08
2023-04-19T11:25:56.893Z,19.08
2023-04-19T11:26:51.312Z,18.77
2023-04-19T11:27:50.620Z,18.41
2023-04-19T11:28:50.598Z,18.26
2023-04-19T11:29:50.615Z,18.19
2023-04-19T11:30:50.616Z,18.07
2023-04-19T11:31:56.872Z,17.94
2023-04-19T11:32:50.599Z,17.86
2023-04-19T11:33:50.550Z,18.01
2023-04-19T11:34:50.529Z,17.80
2023-04-19T11:35:50.529Z,17.52
2023-04-19T11:36:50.523Z,17.31
2023-04-19T11:37:56.768Z,17.09
2023-04-19T11:38:50.462Z,16.96
2023-04-19T11:39:50.450Z,17.02
2023-04-19T11:40:50.545Z,17.02
2023-04-19T11:41:50.452Z,17.08
2023-04-19T11:42:50.446Z,17.06
2023-04-19T11:43:56.673Z,16.83
2023-04-19T11:44:50.428Z,16.71
2023-04-19T11:45:50.488Z,16.97
2023-04-19T11:46:50.416Z,17.67
2023-04-19T11:47:50.560Z,18.96
2023-04-19T11:48:56.622Z,19.95
2023-04-19T11:49:50.354Z,20.26
2023-04-19T11:50:50.350Z,19.59
2023-04-19T11:51:50.356Z,18.80
2023-04-19T11:52:50.298Z,18.41
2023-04-19T11:53:56.570Z,18.03
2023-04-19T11:54:50.297Z,17.76
2023-04-19T11:55:50.287Z,17.54
2023-04-19T11:56:50.289Z,17.24
2023-04-19T11:57:50.233Z,16.99
2023-04-19T11:58:50.267Z,16.78
2023-04-19T11:59:56.471Z,16.58
2023-04-19T12:00:50.240Z,16.39
2023-04-19T12:01:50.260Z,16.31
2023-04-19T12:02:50.339Z,16.21
2023-04-19T12:03:50.365Z,16.20
2023-04-19T12:04:56.505Z,16.16
2023-04-19T12:05:50.212Z,16.12
2023-04-19T12:06:50.120Z,16.20
2023-04-19T12:07:50.116Z,16.24
2023-04-19T12:08:50.192Z,16.24
2023-04-19T12:09:50.106Z,16.31
2023-04-19T12:10:56.348Z,16.33
2023-04-19T12:11:50.350Z,16.31
2023-04-19T12:12:50.088Z,16.33
2023-04-19T12:13:50.084Z,16.38
2023-04-19T12:14:50.037Z,16.47
2023-04-19T12:15:56.291Z,16.56
2023-04-19T12:16:50.050Z,16.69
2023-04-19T12:17:56.820Z,16.91
2023-04-19T12:18:51.538Z,16.99
2023-04-19T12:19:49.970Z,16.94
2023-04-19T12:20:56.245Z,16.99
2023-04-19T12:21:49.951Z,16.97
2023-04-19T12:22:49.940Z,16.94
2023-04-19T12:23:49.923Z,17.02
2023-04-19T12:24:49.965Z,16.97
2023-04-19T12:25:56.168Z,16.83
2023-04-19T12:26:49.935Z,16.65
2023-04-19T12:27:49.850Z,16.61
2023-04-19T12:28:49.860Z,16.61
2023-04-19T12:29:49.860Z,16.53
2023-04-19T12:30:49.835Z,16.47
2023-04-19T12:31:56.173Z,16.50
2023-04-19T12:32:49.874Z,16.49
2023-04-19T12:33:49.796Z,16.46
2023-04-19T12:34:49.812Z,16.46
2023-04-19T12:35:49.767Z,16.35
2023-04-19T12:36:49.764Z,16.38
2023-04-19T12:37:55.978Z,16.41
2023-04-19T12:38:49.706Z,16.41
2023-04-19T12:39:49.708Z,16.35
2023-04-19T12:40:49.686Z,16.35
2023-04-19T12:41:49.694Z,16.35
2023-04-19T12:42:49.678Z,16.31
2023-04-19T12:43:55.976Z,16.26
2023-04-19T12:44:49.642Z,16.31
2023-04-19T12:45:49.669Z,16.38
2023-04-19T12:46:49.645Z,16.47
2023-04-19T12:47:49.618Z,16.42
2023-04-19T12:48:49.575Z,16.36
2023-04-19T12:49:55.863Z,16.41
2023-04-19T12:50:49.639Z,16.53
2023-04-19T12:51:49.601Z,16.72
2023-04-19T12:52:49.531Z,16.87
2023-04-19T12:53:49.507Z,17.14
2023-04-19T12:54:49.512Z,17.24
2023-04-19T12:55:55.778Z,17.65
2023-04-19T12:56:49.538Z,17.82
2023-04-19T12:57:49.477Z,17.68
2023-04-19T12:58:49.538Z,17.92
2023-04-19T12:59:49.482Z,18.56
2023-04-19T13:00:49.445Z,19.74
2023-04-19T13:01:55.736Z,20.69
2023-04-19T13:02:49.566Z,21.77
2023-04-19T13:03:49.650Z,21.83
2023-04-19T13:04:49.468Z,21.64
2023-04-19T13:05:49.407Z,21.64
2023-04-19T13:06:55.617Z,21.45
2023-04-19T13:07:49.357Z,22.18
2023-04-19T13:08:49.706Z,22.69
2023-04-19T13:09:49.320Z,22.44
2023-04-19T13:10:49.332Z,22.69
2023-04-19T13:11:55.551Z,23.27
2023-04-19T13:12:49.299Z,23.58
2023-04-19T13:13:49.312Z,23.32
2023-04-19T13:14:49.273Z,22.57
2023-04-19T13:15:49.264Z,22.06